createdAt,value
2022-11-01T00:00:53.317Z,10.69
2022-11-01T00:03:57.346Z,10.63
2022-11-01T00:07:01.220Z,10.68
2022-11-01T00:10:05.407Z,10.61
2022-11-01T00:13:09.054Z,10.62
2022-11-01T00:16:15.613Z,10.60
2022-11-01T00:19:19.553Z,10.57
2022-11-01T00:22:23.197Z,10.59
2022-11-01T00:25:26.726Z,10.57
2022-11-01T00:28:31.674Z,10.58
2022-11-01T00:31:36.694Z,10.62
2022-11-01T00:34:40.301Z,10.64
2022-11-01T00:37:43.943Z,10.62
2022-11-01T00:40:47.986Z,10.66
2022-11-01T00:43:51.618Z,10.62
2022-11-01T00:46:56.609Z,10.65
2022-11-01T00:50:00.192Z,10.68
2022-11-01T00:53:04.032Z,10.71
2022-11-01T00:56:09.532Z,10.74
2022-11-01T00:59:13.059Z,10.74
2022-11-01T01:02:18.081Z,10.79
2022-11-01T01:05:21.989Z,10.80
2022-11-01T01:08:26.609Z,10.81
2022-11-01T01:11:30.537Z,10.84
2022-11-01T01:14:34.175Z,10.81
2022-11-01T01:17:39.450Z,10.86
2022-11-01T01:20:43.503Z,10.91
2022-11-01T01:23:48.757Z,10.94
2022-11-01T01:26:52.994Z,10.98
2022-11-01T01:29:56.937Z,11.03
2022-11-01T01:33:02.087Z,11.05
2022-11-01T01:36:07.738Z,11.16
2022-11-01T01:39:11.473Z,11.23
2022-11-01T01:42:25.047Z,11.34
2022-11-01T01:45:37.592Z,11.39
2022-11-01T01:48:46.002Z,11.50
2022-11-01T01:51:49.634Z,11.61
2022-11-01T01:54:53.709Z,11.57
2022-11-01T01:57:59.286Z,11.59
2022-11-01T02:01:03.078Z,11.65
2022-11-01T02:04:19.063Z,11.65
2022-11-01T02:07:22.726Z,11.64
2022-11-01T02:10:27.011Z,11.63
2022-11-01T02:13:32.398Z,11.65
2022-11-01T02:16:56.255Z,11.64
2022-11-01T02:20:34.440Z,11.62
2022-11-01T02:24:29.103Z,11.67
2022-11-01T02:27:52.925Z,11.67
2022-11-01T02:31:17.720Z,11.73
2022-11-01T02:34:35.301Z,11.73
2022-11-01T02:37:52.452Z,11.68
2022-11-01T02:41:07.556Z,11.74
2022-11-01T02:44:18.232Z,11.70
2022-11-01T02:47:22.789Z,11.70
2022-11-01T02:50:34.845Z,11.71
2022-11-01T02:53:38.798Z,11.69
2022-11-01T02:56:42.667Z,11.70
2022-11-01T02:59:49.674Z,11.78
2022-11-01T03:03:00.808Z,11.81
2022-11-01T03:06:16.343Z,11.73
2022-11-01T03:09:20.189Z,11.69
2022-11-01T03:15:50.194Z,11.64
2022-11-01T03:19:25.955Z,11.69
2022-11-01T03:22:44.053Z,11.69
2022-11-01T03:25:54.795Z,11.67
2022-11-01T03:29:04.326Z,11.67
2022-11-01T03:32:10.899Z,11.62
2022-11-01T03:35:23.013Z,11.60
2022-11-01T03:38:34.268Z,11.67
2022-11-01T03:41:45.972Z,11.58
2022-11-01T03:44:55.809Z,11.54
2022-11-01T03:47:59.622Z,11.64
2022-11-01T03:51:03.522Z,11.58
2022-11-01T03:54:11.390Z,11.63
2022-11-01T03:57:15.085Z,11.63
2022-11-01T04:00:22.180Z,11.65
2022-11-01T04:03:25.710Z,11.66
2022-11-01T04:06:29.427Z,11.65
2022-11-01T04:09:34.317Z,11.67
2022-11-01T04:12:37.951Z,11.69
2022-11-01T04:15:58.660Z,11.77
2022-11-01T04:19:19.803Z,11.73
2022-11-01T04:22:24.645Z,11.84
2022-11-01T04:25:30.402Z,11.72
2022-11-01T04:28:34.020Z,11.75
2022-11-01T04:31:38.674Z,11.80
2022-11-01T04:34:44.933Z,11.91
2022-11-01T04:37:49.018Z,11.92
2022-11-01T04:40:53.999Z,11.97
2022-11-01T04:44:00.258Z,12.05
2022-11-01T04:47:03.842Z,12.00
2022-11-01T04:50:08.244Z,12.05
2022-11-01T04:53:12.014Z,11.95
2022-11-01T04:56:16.991Z,11.95
2022-11-01T04:59:20.565Z,11.93
2022-11-01T05:02:25.752Z,11.92
2022-11-01T05:05:29.393Z,12.01
2022-11-01T05:08:33.111Z,12.04
2022-11-01T05:11:38.085Z,12.00
2022-11-01T05:14:41.730Z,12.03
2022-11-01T05:17:45.389Z,12.01
2022-11-01T05:20:49.054Z,12.02
2022-11-01T05:23:52.663Z,12.20
2022-11-01T05:26:58.122Z,12.11
2022-11-01T05:30:01.927Z,12.09
2022-11-01T05:33:07.682Z,12.02
2022-11-01T05:36:11.393Z,12.00
2022-11-01T05:39:15.000Z,11.94
2022-11-01T05:42:19.909Z,12.00
2022-11-01T05:45:23.583Z,11.97
2022-11-01T05:48:27.110Z,12.00
2022-11-01T05:51:30.710Z,12.04
2022-11-01T05:54:34.351Z,12.03
2022-11-01T05:57:39.423Z,12.06
2022-11-01T06:00:43.217Z,12.08
2022-11-01T06:03:51.558Z,12.12
2022-11-01T06:06:55.158Z,12.12
2022-11-01T06:09:58.783Z,12.17
2022-11-01T06:13:04.621Z,12.11
2022-11-01T06:16:09.504Z,12.34
2022-11-01T06:19:13.278Z,12.35
2022-11-01T06:22:16.976Z,12.40
2022-11-01T06:25:21.043Z,12.34
2022-11-01T06:28:26.026Z,12.38
2022-11-01T06:31:29.774Z,12.34
2022-11-01T06:34:33.755Z,12.41
2022-11-01T06:37:37.295Z,12.34
2022-11-01T06:40:40.862Z,12.36
2022-11-01T06:43:45.875Z,12.37
2022-11-01T06:46:49.549Z,12.51
2022-11-01T06:49:53.189Z,12.49
2022-11-01T06:52:58.669Z,12.50
2022-11-01T06:56:03.072Z,12.54
2022-11-01T06:59:08.413Z,12.50
2022-11-01T07:02:14.560Z,12.50
2022-11-01T07:05:18.677Z,12.62
2022-11-01T07:08:22.374Z,12.58
2022-11-01T07:11:30.985Z,12.60
2022-11-01T07:14:36.666Z,12.66
2022-11-01T07:17:40.431Z,12.65
2022-11-01T07:20:44.133Z,12.68
2022-11-01T07:23:48.024Z,12.92
2022-11-01T07:26:51.583Z,13.03
2022-11-01T07:29:56.611Z,13.04
2022-11-01T07:33:03.507Z,13.17
2022-11-01T07:36:09.948Z,13.15
2022-11-01T07:39:13.730Z,13.08
2022-11-01T07:42:17.299Z,13.00
2022-11-01T07:45:35.089Z,13.06
2022-11-01T07:48:39.309Z,13.24
2022-11-01T07:51:42.914Z,13.29
2022-11-01T07:54:46.500Z,13.32
2022-11-01T07:57:52.321Z,13.47
2022-11-01T08:00:57.641Z,13.31
2022-11-01T08:04:01.190Z,13.59
2022-11-01T08:07:04.806Z,13.49
2022-11-01T08:10:10.883Z,13.46
2022-11-01T08:13:18.710Z,13.50
2022-11-01T08:16:23.678Z,13.49
2022-11-01T08:19:27.252Z,13.53
2022-11-01T08:22:31.070Z,13.60
2022-11-01T08:25:35.621Z,13.62
2022-11-01T08:28:39.837Z,13.70
2022-11-01T08:31:45.419Z,13.73
2022-11-01T08:34:49.694Z,13.78
2022-11-01T08:37:54.999Z,13.88
2022-11-01T08:40:59.989Z,14.02
2022-11-01T08:44:03.540Z,14.15
2022-11-01T08:47:08.613Z,14.16
2022-11-01T08:50:15.078Z,14.19
2022-11-01T08:53:19.681Z,14.28
2022-11-01T08:56:24.630Z,14.32
2022-11-01T08:59:28.298Z,14.35
2022-11-01T09:02:33.348Z,14.41
2022-11-01T09:05:37.646Z,14.39
2022-11-01T09:08:41.250Z,14.45
2022-11-01T09:11:44.937Z,14.49
2022-11-01T09:14:49.167Z,14.45
2022-11-01T09:17:54.360Z,14.44
2022-11-01T09:20:58.306Z,14.45
2022-11-01T09:24:02.170Z,14.53
2022-11-01T09:27:07.678Z,14.67
2022-11-01T09:30:13.015Z,14.62
2022-11-01T09:33:18.710Z,14.61
2022-11-01T09:36:22.547Z,14.57
2022-11-01T09:39:26.533Z,14.57
2022-11-01T09:42:34.585Z,14.54
2022-11-01T09:45:38.720Z,14.58
2022-11-01T09:48:46.509Z,14.56
2022-11-01T09:51:50.256Z,14.65
2022-11-01T09:54:54.296Z,14.67
2022-11-01T09:58:05.770Z,14.64
2022-11-01T10:01:31.140Z,14.80
2022-11-01T10:04:58.563Z,14.72
2022-11-01T10:08:12.515Z,14.74
2022-11-01T10:11:54.028Z,14.75
2022-11-01T10:15:21.740Z,14.80
2022-11-01T10:18:30.210Z,14.77
2022-11-01T10:21:44.704Z,14.81
2022-11-01T10:24:53.897Z,14.75
2022-11-01T10:28:10.811Z,14.80
2022-11-01T10:31:21.418Z,14.80
2022-11-01T10:34:33.374Z,14.87
2022-11-01T10:38:03.931Z,14.79
2022-11-01T10:41:25.230Z,14.94
2022-11-01T10:44:35.022Z,14.92
2022-11-01T10:47:42.827Z,14.96
2022-11-01T10:50:47.830Z,14.87
2022-11-01T10:53:58.689Z,14.91
2022-11-01T10:57:10.608Z,14.89
2022-11-01T11:00:20.151Z,14.91
2022-11-01T11:03:32.759Z,15.01
2022-11-01T11:06:38.281Z,15.00
2022-11-01T11:09:43.279Z,15.02
2022-11-01T11:12:50.931Z,14.99
2022-11-01T11:16:00.542Z,15.00
2022-11-01T11:19:19.608Z,15.02
2022-11-01T11:22:26.528Z,14.99
2022-11-01T11:25:38.561Z,15.04
2022-11-01T11:28:48.973Z,15.05
2022-11-01T11:31:59.317Z,15.00
2022-11-01T11:35:08.832Z,15.06
2022-11-01T11:38:15.907Z,15.10
2022-11-01T11:41:32.969Z,15.06
2022-11-01T11:44:45.411Z,15.13
2022-11-01T11:47:49.829Z,15.07
2022-11-01T11:51:04.482Z,15.19
2022-11-01T11:54:28.941Z,15.09
2022-11-01T11:57:34.421Z,15.14
2022-11-01T12:00:39.501Z,15.22
2022-11-01T12:03:51.407Z,15.22
2022-11-01T12:06:54.967Z,15.16
2022-11-01T12:10:03.115Z,15.19
2022-11-01T12:13:27.669Z,15.24
2022-11-01T12:16:31.856Z,15.42
2022-11-01T12:19:35.429Z,15.43
2022-11-01T12:22:45.084Z,15.31
2022-11-01T12:25:51.500Z,15.19
2022-11-01T12:29:19.132Z,15.09
2022-11-01T12:32:30.358Z,15.26
2022-11-01T12:35:42.529Z,15.31
2022-11-01T12:38:52.390Z,15.34
2022-11-01T12:42:02.341Z,15.31
2022-11-01T12:45:20.834Z,15.27
2022-11-01T12:48:31.946Z,15.37
2022-11-01T12:51:45.501Z,15.29
2022-11-01T12:55:05.351Z,15.31
2022-11-01T12:58:16.760Z,15.50
2022-11-01T13:01:38.007Z,15.53
2022-11-01T13:04:55.072Z,15.43
2022-11-01T13:08:17.231Z,15.40
2022-11-01T13:11:31.317Z,15.41
2022-11-01T13:14:58.397Z,15.64
2022-11-01T13:18:16.973Z,15.67
2022-11-01T13:21:35.890Z,15.59
2022-11-01T13:24:48.157Z,15.53
2022-11-01T13:28:06.704Z,15.34
2022-11-01T13:31:28.663Z,15.29
2022-11-01T13:35:17.795Z,15.20
2022-11-01T13:38:33.502Z,15.21
2022-11-01T13:41:45.483Z,15.12
2022-11-01T13:44:58.761Z,15.13
2022-11-01T13:48:19.291Z,15.11
2022-11-01T13:51:43.710Z,15.24
2022-11-01T13:54:59.285Z,15.39
2022-11-01T13:58:04.207Z,15.35
2022-11-01T14:01:32.260Z,15.35
2022-11-01T14:04:39.934Z,15.18
2022-11-01T14:08:16.151Z,15.17
2022-11-01T14:11:48.884Z,15.05
2022-11-01T14:14:55.776Z,14.97
2022-11-01T14:18:10.167Z,14.94
2022-11-01T14:21:32.099Z,14.89
2022-11-01T14:24:55.049Z,14.83
2022-11-01T14:28:22.502Z,14.77
2022-11-01T14:31:33.812Z,14.77
2022-11-01T14:34:39.429Z,14.77
2022-11-01T14:37:48.341Z,14.77
2022-11-01T14:40:57.689Z,14.76
2022-11-01T14:44:11.926Z,14.62
2022-11-01T14:47:31.941Z,14.61
2022-11-01T14:50:50.444Z,14.50
2022-11-01T14:54:03.702Z,14.42
2022-11-01T14:57:26.859Z,14.46
2022-11-01T15:00:33.333Z,14.38
2022-11-01T15:03:36.971Z,14.34
2022-11-01T15:06:44.784Z,14.28
2022-11-01T15:09:59.005Z,14.16
2022-11-01T15:13:05.597Z,14.23
2022-11-01T15:16:18.768Z,14.18
2022-11-01T15:19:28.402Z,14.06
2022-11-01T15:22:34.801Z,13.94
2022-11-01T15:25:38.749Z,13.88
2022-11-01T15:28:49.299Z,13.96
2022-11-01T15:31:59.101Z,13.66
2022-11-01T15:35:20.186Z,13.62
2022-11-01T15:38:24.215Z,13.62
2022-11-01T15:41:31.166Z,13.48
2022-11-01T15:44:36.273Z,13.37
2022-11-01T15:47:46.462Z,13.24
2022-11-01T15:50:56.797Z,13.27
2022-11-01T15:54:14.419Z,13.15
2022-11-01T15:57:24.556Z,13.07
2022-11-01T16:00:36.881Z,13.21
2022-11-01T16:03:49.550Z,12.86
2022-11-01T16:06:59.594Z,12.66
2022-11-01T16:10:06.166Z,12.67
2022-11-01T16:13:18.981Z,12.75
2022-11-01T16:16:25.813Z,12.59
2022-11-01T16:19:42.251Z,12.43
2022-11-01T16:22:48.869Z,12.37
2022-11-01T16:26:03.600Z,12.42
2022-11-01T16:29:07.231Z,12.28
2022-11-01T16:32:21.538Z,12.20
2022-11-01T16:35:33.750Z,12.22
2022-11-01T16:38:44.516Z,12.06
2022-11-01T16:41:49.256Z,12.06
2022-11-01T16:44:57.667Z,12.14
2022-11-01T16:48:02.872Z,11.93
2022-11-01T16:51:07.402Z,12.00
2022-11-01T16:54:12.683Z,12.03
2022-11-01T16:57:26.392Z,12.14
2022-11-01T17:00:30.041Z,12.01
2022-11-01T17:03:35.102Z,11.83
2022-11-01T17:06:39.411Z,11.81
2022-11-01T17:09:43.197Z,11.76
2022-11-01T17:12:47.059Z,11.74
2022-11-01T17:15:52.931Z,11.72
2022-11-01T17:19:01.301Z,11.77
2022-11-01T17:22:09.854Z,11.67
2022-11-01T17:25:20.221Z,11.65
2022-11-01T17:28:25.057Z,11.58
2022-11-01T17:31:30.511Z,11.56
2022-11-01T17:34:35.582Z,11.50
2022-11-01T17:37:41.053Z,11.47
2022-11-01T17:40:46.510Z,11.52
2022-11-01T17:43:50.187Z,11.40
2022-11-01T17:46:53.766Z,11.38
2022-11-01T17:49:59.059Z,11.31
2022-11-01T17:53:03.179Z,11.33
2022-11-01T17:56:08.473Z,11.49
2022-11-01T17:59:12.247Z,11.56
2022-11-01T18:02:16.071Z,11.64
2022-11-01T18:05:21.278Z,11.49
2022-11-01T18:08:29.042Z,11.41
2022-11-01T18:11:43.144Z,11.38
2022-11-01T18:14:58.964Z,11.28
2022-11-01T18:18:26.976Z,11.27
2022-11-01T18:21:56.192Z,11.26
2022-11-01T18:25:06.294Z,11.11
2022-11-01T18:28:15.101Z,11.07
2022-11-01T18:31:27.133Z,11.12
2022-11-01T18:34:40.563Z,11.05
2022-11-01T18:38:00.763Z,11.02
2022-11-01T18:41:10.632Z,11.06
2022-11-01T18:44:17.050Z,10.95
2022-11-01T18:47:26.029Z,10.99
2022-11-01T18:50:31.168Z,11.01
2022-11-01T18:53:37.043Z,11.10
2022-11-01T18:56:44.817Z,11.05
2022-11-01T18:59:50.237Z,11.00
2022-11-01T19:02:58.707Z,10.97
2022-11-01T19:06:20.671Z,10.88
2022-11-01T19:09:29.130Z,10.90
2022-11-01T19:12:39.476Z,10.79
2022-11-01T19:15:43.234Z,10.70
2022-11-01T19:18:49.822Z,10.70
2022-11-01T19:21:58.922Z,10.69
2022-11-01T19:25:15.039Z,10.57
2022-11-01T19:28:38.747Z,10.54
2022-11-01T19:31:47.698Z,10.46
2022-11-01T19:34:53.646Z,10.34
2022-11-01T19:37:58.326Z,10.26
2022-11-01T19:41:04.007Z,10.22
2022-11-01T19:44:21.779Z,10.20
2022-11-01T19:47:41.750Z,10.09
2022-11-01T19:50:47.964Z,10.15
2022-11-01T19:53:53.455Z,10.32
2022-11-01T19:57:02.311Z,10.09
2022-11-01T20:00:20.244Z,10.17
2022-11-01T20:03:35.493Z,10.40
2022-11-01T20:06:49.629Z,10.27
2022-11-01T20:09:58.425Z,10.30
2022-11-01T20:13:04.597Z,10.28
2022-11-01T20:16:09.556Z,10.22
2022-11-01T20:19:17.385Z,10.37
2022-11-01T20:22:22.662Z,10.41
2022-11-01T20:25:30.046Z,10.41
2022-11-01T20:28:36.307Z,10.27
2022-11-01T20:31:40.688Z,10.24
2022-11-01T20:34:44.637Z,10.29
2022-11-01T20:37:48.731Z,10.35
2022-11-01T20:40:53.322Z,10.28
2022-11-01T20:43:58.678Z,10.41
2022-11-01T20:47:02.290Z,10.40
2022-11-01T20:50:08.906Z,10.39
2022-11-01T20:53:13.861Z,10.45
2022-11-01T20:56:17.843Z,10.52
2022-11-01T20:59:22.871Z,10.57
2022-11-01T21:02:27.305Z,10.51
2022-11-01T21:05:34.903Z,10.44
2022-11-01T21:08:38.553Z,10.42
2022-11-01T21:11:44.899Z,10.51
2022-11-01T21:14:51.044Z,10.43
2022-11-01T21:17:59.029Z,10.50
2022-11-01T21:21:35.095Z,10.38
2022-11-01T21:24:44.439Z,10.37
2022-11-01T21:27:50.127Z,10.43
2022-11-01T21:30:55.690Z,10.42
2022-11-01T21:34:04.466Z,10.42
2022-11-01T21:37:10.730Z,10.55
2022-11-01T21:40:26.736Z,10.55
2022-11-01T21:43:36.410Z,10.44
2022-11-01T21:46:41.381Z,10.47
2022-11-01T21:49:45.102Z,10.53
2022-11-01T21:52:48.646Z,10.44
2022-11-01T21:55:52.455Z,10.42
2022-11-01T21:58:56.101Z,10.38
2022-11-01T22:02:02.713Z,10.50
2022-11-01T22:05:07.499Z,10.45
2022-11-01T22:08:11.214Z,10.45
2022-11-01T22:11:15.097Z,10.52
2022-11-01T22:14:18.987Z,10.59
2022-11-01T22:17:23.978Z,10.57
2022-11-01T22:20:27.693Z,10.45
2022-11-01T22:23:31.654Z,10.48
2022-11-01T22:26:35.288Z,10.43
2022-11-01T22:29:38.893Z,10.35
2022-11-01T22:32:44.077Z,10.39
2022-11-01T22:35:47.706Z,10.52
2022-11-01T22:38:51.578Z,10.46
2022-11-01T22:41:56.270Z,10.42
2022-11-01T22:44:59.991Z,10.40
2022-11-01T22:48:16.308Z,10.33
2022-11-01T22:51:32.594Z,10.41
2022-11-01T22:54:40.163Z,10.33
2022-11-01T22:57:50.389Z,10.39
2022-11-01T23:00:55.254Z,10.32
2022-11-01T23:04:00.702Z,10.23
2022-11-01T23:07:18.326Z,10.29
2022-11-01T23:10:32.270Z,10.31
2022-11-01T23:13:57.528Z,10.36
2022-11-01T23:17:01.082Z,10.29
2022-11-01T23:20:07.793Z,10.26
2022-11-01T23:23:19.305Z,10.27
2022-11-01T23:26:24.998Z,10.30
2022-11-01T23:29:28.987Z,10.42
2022-11-01T23:32:33.048Z,10.54
2022-11-01T23:35:38.082Z,10.61
2022-11-01T23:38:47.285Z,10.64
2022-11-01T23:41:54.885Z,10.72
2022-11-01T23:44:58.723Z,10.70
2022-11-01T23:48:03.949Z,10.82
2022-11-01T23:51:16.093Z,10.80
2022-11-01T23:54:25.501Z,10.84
2022-11-01T23:57:29.102Z,10.81
